Aérodrome :
LOGIN :

S'inscrire | Disclaimer

   EN    FR    IT 

 










Légende :    VFR   VFR Marginal   IFR   IFR Intensif   IFR Très Intensif
Visi : 
Plafond : 
>= 8 km
>= 3000ft
5 à 8 km
1000 à 3000 ft
1500m à 5 km
500 à 1000 ft
800 à 1500m
200 à 500 ft
< 800m
< 200 ft
Symboles :   Orages  Brouillard  Fortes neiges  Fortes précipitations  Vent > 20 kt
SIGMETs :   Divers  Orages  Givrage  Turbulence  Onde Orograph.  Cendres Volcan.






- Altitude de l'aérodrome : 424 ft
- Code IATA : QGY


LHPR - Györ Per

DERNIER METAR :
  • 251215Z AUTO 14011KT 7000 OVC010 02/01 Q1027 NOSIG

METARs EXPIRÉS :
  • 251145Z AUTO 15010KT 7000 OVC009 02/01 Q1027 NOSIG
  • 251115Z AUTO 15010KT 130V190 8000 OVC008 02/01 Q1027 NOSIG
  • 251045Z AUTO 16010KT 6000 OVC009 02/01 Q1027 NOSIG
  • 251015Z AUTO 15010KT 7000 OVC009 02/01 Q1027 NOSIG
  • 250945Z AUTO 14010KT 5000 BR OVC009 02/01 Q1028 NOSIG

TAF TAF LHPR
Valide du 25 à 12h jusqu'au 25 à 21h UTC


251115Z 2512/2521 15011KT 7000 OVC010
TEMPO 2512/2518 OVC015
BECMG 2518/2521 VRB03KT 3000 BR OVC005



MET'MAP, la Météo Aéronautique d'un coup d'oeil ! - Copyright ORBIFLY Décembre 2007 - Disclaimer

ORBIFLY MET'MAP TEAM :

Programmation & Développement : Alexandra Zaïnal
Sur une idée originale de : Baudouin d'Aumeries
Assistance à la programmation : Marc-Olivier Méhu
Soutien technique & logistique : Manuel Goepfert

Contact : metmap@orbifly.com




SOURCES & CREDITS :

   NOAA